Terminal Aerodrome Forecast
Issued by NWS

Home | Current Version | Previous Version | Text Only | Print | Product List | Glossary Off
Versions: 1 2 3 4 5 6 7 8 9 10 11 12 13 14 15 16 17 18 19 20 21 22 23 24 25 26 27 28 29 30 31 32 33 34

472
FTUS43 KGRB 200843 AAA
TAFRHI
TAF AMD
KRHI 200843Z 2009/2106 VRB03KT 4SM BR SCT100
      TEMPO 2009/2012 1SM BR
     FM201300 28007KT P6SM SCT035
     FM210100 VRB02KT P6SM SKC=

USA.gov is the U.S. government's official web portal to all federal, state and local government web resources and services.